sensor_id;sensor_type;location;lat;lon;timestamp;temperature;humidity
12684;DHT22;6406;59.312;18.058;2024-03-25T00:02:00;0.20;1.00
12684;DHT22;6406;59.312;18.058;2024-03-25T00:04:27;0.20;1.00
12684;DHT22;6406;59.312;18.058;2024-03-25T00:06:53;0.20;1.00
12684;DHT22;6406;59.312;18.058;2024-03-25T00:09:20;0.10;1.00
12684;DHT22;6406;59.312;18.058;2024-03-25T00:11:48;0.10;1.00
12684;DHT22;6406;59.312;18.058;2024-03-25T00:14:19;0.10;1.00
12684;DHT22;6406;59.312;18.058;2024-03-25T00:16:46;0.10;1.00
12684;DHT22;6406;59.312;18.058;2024-03-25T00:19:13;0.10;1.00
12684;DHT22;6406;59.312;18.058;2024-03-25T00:21:39;0.10;1.00
12684;DHT22;6406;59.312;18.058;2024-03-25T00:24:07;0.00;1.00
12684;DHT22;6406;59.312;18.058;2024-03-25T00:26:34;0.10;1.00
12684;DHT22;6406;59.312;18.058;2024-03-25T00:29:02;0.20;1.00
12684;DHT22;6406;59.312;18.058;2024-03-25T00:31:28;0.30;1.00
12684;DHT22;6406;59.312;18.058;2024-03-25T00:33:56;0.20;1.00
12684;DHT22;6406;59.312;18.058;2024-03-25T00:36:22;0.10;1.00
12684;DHT22;6406;59.312;18.058;2024-03-25T00:38:49;-0.20;1.00
12684;DHT22;6406;59.312;18.058;2024-03-25T00:41:15;0.20;1.00
12684;DHT22;6406;59.312;18.058;2024-03-25T00:43:42;0.20;1.00
12684;DHT22;6406;59.312;18.058;2024-03-25T00:46:10;0.10;1.00
12684;DHT22;6406;59.312;18.058;2024-03-25T00:48:38;0.30;1.00
12684;DHT22;6406;59.312;18.058;2024-03-25T00:51:04;0.20;1.00
12684;DHT22;6406;59.312;18.058;2024-03-25T00:53:31;0.00;1.00
12684;DHT22;6406;59.312;18.058;2024-03-25T00:55:58;0.10;1.00
12684;DHT22;6406;59.312;18.058;2024-03-25T00:58:25;0.40;1.00
12684;DHT22;6406;59.312;18.058;2024-03-25T01:00:51;0.20;1.00
12684;DHT22;6406;59.312;18.058;2024-03-25T01:03:19;0.10;1.00
12684;DHT22;6406;59.312;18.058;2024-03-25T01:05:46;-0.10;1.00
12684;DHT22;6406;59.312;18.058;2024-03-25T01:08:13;0.00;1.00
12684;DHT22;6406;59.312;18.058;2024-03-25T01:10:40;0.00;1.00
12684;DHT22;6406;59.312;18.058;2024-03-25T01:13:07;0.00;1.00
12684;DHT22;6406;59.312;18.058;2024-03-25T01:15:33;0.00;1.00
12684;DHT22;6406;59.312;18.058;2024-03-25T01:18:00;0.00;1.00
12684;DHT22;6406;59.312;18.058;2024-03-25T01:20:28;0.00;1.00
12684;DHT22;6406;59.312;18.058;2024-03-25T01:22:55;0.10;1.00
12684;DHT22;6406;59.312;18.058;2024-03-25T01:25:21;-0.40;1.00
12684;DHT22;6406;59.312;18.058;2024-03-25T01:27:48;0.10;1.00
12684;DHT22;6406;59.312;18.058;2024-03-25T01:30:14;0.10;1.00
12684;DHT22;6406;59.312;18.058;2024-03-25T01:32:42;0.10;1.00
12684;DHT22;6406;59.312;18.058;2024-03-25T01:35:08;0.40;1.00
12684;DHT22;6406;59.312;18.058;2024-03-25T01:37:38;0.20;1.00
12684;DHT22;6406;59.312;18.058;2024-03-25T01:40:06;0.00;1.00
12684;DHT22;6406;59.312;18.058;2024-03-25T01:42:35;-0.10;1.00
12684;DHT22;6406;59.312;18.058;2024-03-25T01:45:02;-0.20;1.00
12684;DHT22;6406;59.312;18.058;2024-03-25T01:47:30;-0.20;1.00
12684;DHT22;6406;59.312;18.058;2024-03-25T01:49:59;-0.20;1.00
12684;DHT22;6406;59.312;18.058;2024-03-25T01:52:26;-0.20;1.00
12684;DHT22;6406;59.312;18.058;2024-03-25T01:54:54;-0.10;1.00
12684;DHT22;6406;59.312;18.058;2024-03-25T01:57:22;-0.10;1.00
12684;DHT22;6406;59.312;18.058;2024-03-25T01:59:48;-0.10;1.00
12684;DHT22;6406;59.312;18.058;2024-03-25T02:02:16;-0.30;1.00
12684;DHT22;6406;59.312;18.058;2024-03-25T02:04:42;-0.40;1.00
12684;DHT22;6406;59.312;18.058;2024-03-25T02:07:11;-0.30;1.00
12684;DHT22;6406;59.312;18.058;2024-03-25T02:09:38;-0.30;1.00
12684;DHT22;6406;59.312;18.058;2024-03-25T02:12:08;-0.20;1.00
12684;DHT22;6406;59.312;18.058;2024-03-25T02:14:35;-0.30;1.00
12684;DHT22;6406;59.312;18.058;2024-03-25T02:17:03;-0.10;1.00
12684;DHT22;6406;59.312;18.058;2024-03-25T02:19:30;0.30;1.00
12684;DHT22;6406;59.312;18.058;2024-03-25T02:21:58;-0.20;1.00
12684;DHT22;6406;59.312;18.058;2024-03-25T02:24:26;-0.30;1.00
12684;DHT22;6406;59.312;18.058;2024-03-25T02:26:56;-0.20;1.00
12684;DHT22;6406;59.312;18.058;2024-03-25T02:29:22;-0.10;1.00
12684;DHT22;6406;59.312;18.058;2024-03-25T02:31:49;0.00;1.00
12684;DHT22;6406;59.312;18.058;2024-03-25T02:34:18;-0.10;1.00
12684;DHT22;6406;59.312;18.058;2024-03-25T02:36:46;-0.30;1.00
12684;DHT22;6406;59.312;18.058;2024-03-25T02:39:12;-0.20;1.00
12684;DHT22;6406;59.312;18.058;2024-03-25T02:41:40;-0.20;1.00
12684;DHT22;6406;59.312;18.058;2024-03-25T02:44:08;-0.10;1.00
12684;DHT22;6406;59.312;18.058;2024-03-25T02:46:36;-0.20;1.00
12684;DHT22;6406;59.312;18.058;2024-03-25T02:49:02;-0.20;1.00
12684;DHT22;6406;59.312;18.058;2024-03-25T02:51:29;-0.30;1.00
12684;DHT22;6406;59.312;18.058;2024-03-25T02:53:55;-0.10;1.00
12684;DHT22;6406;59.312;18.058;2024-03-25T02:56:22;-0.30;1.00
12684;DHT22;6406;59.312;18.058;2024-03-25T02:58:48;-0.20;1.00
12684;DHT22;6406;59.312;18.058;2024-03-25T03:01:17;-0.40;1.00
12684;DHT22;6406;59.312;18.058;2024-03-25T03:03:43;-0.30;1.00
12684;DHT22;6406;59.312;18.058;2024-03-25T03:06:10;-0.20;1.00
12684;DHT22;6406;59.312;18.058;2024-03-25T03:08:37;-0.20;1.00
12684;DHT22;6406;59.312;18.058;2024-03-25T03:11:04;-0.10;1.00
12684;DHT22;6406;59.312;18.058;2024-03-25T03:13:30;-0.10;1.00
12684;DHT22;6406;59.312;18.058;2024-03-25T03:15:57;-0.10;1.00
12684;DHT22;6406;59.312;18.058;2024-03-25T03:18:25;0.90;1.00
12684;DHT22;6406;59.312;18.058;2024-03-25T03:20:52;-0.10;1.00
12684;DHT22;6406;59.312;18.058;2024-03-25T03:23:21;-0.10;1.00
12684;DHT22;6406;59.312;18.058;2024-03-25T03:25:48;-0.20;1.00
12684;DHT22;6406;59.312;18.058;2024-03-25T03:28:14;-0.10;1.00
12684;DHT22;6406;59.312;18.058;2024-03-25T03:30:42;-0.10;1.00
12684;DHT22;6406;59.312;18.058;2024-03-25T03:33:08;-0.10;1.00
12684;DHT22;6406;59.312;18.058;2024-03-25T03:35:36;-0.20;1.00
12684;DHT22;6406;59.312;18.058;2024-03-25T03:38:03;-0.20;1.00
12684;DHT22;6406;59.312;18.058;2024-03-25T03:40:31;-0.10;1.00
12684;DHT22;6406;59.312;18.058;2024-03-25T03:42:57;-0.10;1.00
12684;DHT22;6406;59.312;18.058;2024-03-25T03:45:25;-0.20;1.00
12684;DHT22;6406;59.312;18.058;2024-03-25T03:47:51;-0.30;1.00
12684;DHT22;6406;59.312;18.058;2024-03-25T03:50:18;-0.20;1.00
12684;DHT22;6406;59.312;18.058;2024-03-25T03:52:46;-0.10;1.00
12684;DHT22;6406;59.312;18.058;2024-03-25T03:55:13;-0.10;1.00
12684;DHT22;6406;59.312;18.058;2024-03-25T03:57:39;-0.10;1.00
12684;DHT22;6406;59.312;18.058;2024-03-25T04:00:09;-0.30;1.00
12684;DHT22;6406;59.312;18.058;2024-03-25T04:02:37;-0.10;1.00
12684;DHT22;6406;59.312;18.058;2024-03-25T04:05:05;-0.20;1.00
12684;DHT22;6406;59.312;18.058;2024-03-25T04:07:32;-0.10;1.00
12684;DHT22;6406;59.312;18.058;2024-03-25T04:10:00;-0.10;1.00
12684;DHT22;6406;59.312;18.058;2024-03-25T04:12:27;-0.20;1.00
12684;DHT22;6406;59.312;18.058;2024-03-25T04:14:54;-0.30;1.00
12684;DHT22;6406;59.312;18.058;2024-03-25T04:17:21;-0.40;1.00
12684;DHT22;6406;59.312;18.058;2024-03-25T04:19:48;-0.30;1.00
12684;DHT22;6406;59.312;18.058;2024-03-25T04:22:15;-0.10;1.00
12684;DHT22;6406;59.312;18.058;2024-03-25T04:24:43;0.00;1.00
12684;DHT22;6406;59.312;18.058;2024-03-25T04:27:10;0.00;1.00
12684;DHT22;6406;59.312;18.058;2024-03-25T04:29:37;0.00;1.00
12684;DHT22;6406;59.312;18.058;2024-03-25T04:32:04;0.00;1.00
12684;DHT22;6406;59.312;18.058;2024-03-25T04:34:31;0.10;1.00
12684;DHT22;6406;59.312;18.058;2024-03-25T04:36:57;-0.20;1.00
12684;DHT22;6406;59.312;18.058;2024-03-25T04:39:24;-0.20;1.00
12684;DHT22;6406;59.312;18.058;2024-03-25T04:41:51;-0.10;1.00
12684;DHT22;6406;59.312;18.058;2024-03-25T04:44:18;-0.20;1.00
12684;DHT22;6406;59.312;18.058;2024-03-25T04:46:44;-0.10;1.00
12684;DHT22;6406;59.312;18.058;2024-03-25T04:49:10;-0.10;1.00
12684;DHT22;6406;59.312;18.058;2024-03-25T04:51:37;-0.20;1.00
12684;DHT22;6406;59.312;18.058;2024-03-25T04:54:03;-0.10;1.00
12684;DHT22;6406;59.312;18.058;2024-03-25T04:56:29;-0.10;1.00
12684;DHT22;6406;59.312;18.058;2024-03-25T04:58:55;-0.10;1.00
12684;DHT22;6406;59.312;18.058;2024-03-25T05:01:23;-0.10;1.00
12684;DHT22;6406;59.312;18.058;2024-03-25T05:03:50;-0.10;1.00
12684;DHT22;6406;59.312;18.058;2024-03-25T05:06:16;-0.10;1.00
12684;DHT22;6406;59.312;18.058;2024-03-25T05:08:43;0.00;1.00
12684;DHT22;6406;59.312;18.058;2024-03-25T05:11:09;-0.10;1.00
12684;DHT22;6406;59.312;18.058;2024-03-25T05:13:35;-0.20;1.00
12684;DHT22;6406;59.312;18.058;2024-03-25T05:16:01;0.00;1.00
12684;DHT22;6406;59.312;18.058;2024-03-25T05:18:29;0.00;1.00
12684;DHT22;6406;59.312;18.058;2024-03-25T05:20:55;-0.10;1.00
12684;DHT22;6406;59.312;18.058;2024-03-25T05:23:21;-0.10;1.00
12684;DHT22;6406;59.312;18.058;2024-03-25T05:25:47;0.00;1.00
12684;DHT22;6406;59.312;18.058;2024-03-25T05:28:13;0.10;1.00
12684;DHT22;6406;59.312;18.058;2024-03-25T05:30:40;0.10;1.00
12684;DHT22;6406;59.312;18.058;2024-03-25T05:33:06;0.00;1.00
12684;DHT22;6406;59.312;18.058;2024-03-25T05:35:34;0.10;1.00
12684;DHT22;6406;59.312;18.058;2024-03-25T05:38:00;0.10;1.00
12684;DHT22;6406;59.312;18.058;2024-03-25T05:40:27;0.20;1.00
12684;DHT22;6406;59.312;18.058;2024-03-25T05:42:53;0.30;1.00
12684;DHT22;6406;59.312;18.058;2024-03-25T05:45:19;0.40;1.00
12684;DHT22;6406;59.312;18.058;2024-03-25T05:47:45;0.30;1.00
12684;DHT22;6406;59.312;18.058;2024-03-25T05:50:11;0.30;1.00
12684;DHT22;6406;59.312;18.058;2024-03-25T05:52:39;0.20;1.00
12684;DHT22;6406;59.312;18.058;2024-03-25T05:55:06;0.20;1.00
12684;DHT22;6406;59.312;18.058;2024-03-25T05:57:32;0.20;1.00
12684;DHT22;6406;59.312;18.058;2024-03-25T05:59:58;0.40;1.00
12684;DHT22;6406;59.312;18.058;2024-03-25T06:02:24;0.20;1.00
12684;DHT22;6406;59.312;18.058;2024-03-25T06:04:50;0.10;1.00
12684;DHT22;6406;59.312;18.058;2024-03-25T06:07:17;0.10;1.00
12684;DHT22;6406;59.312;18.058;2024-03-25T06:09:44;0.20;1.00
12684;DHT22;6406;59.312;18.058;2024-03-25T06:12:11;0.30;1.00
12684;DHT22;6406;59.312;18.058;2024-03-25T06:14:37;0.00;1.00
12684;DHT22;6406;59.312;18.058;2024-03-25T06:17:03;0.30;1.00
12684;DHT22;6406;59.312;18.058;2024-03-25T06:19:29;0.30;1.00
12684;DHT22;6406;59.312;18.058;2024-03-25T06:21:56;0.40;1.00
12684;DHT22;6406;59.312;18.058;2024-03-25T06:24:22;0.50;1.00
12684;DHT22;6406;59.312;18.058;2024-03-25T06:26:49;0.50;1.00
12684;DHT22;6406;59.312;18.058;2024-03-25T06:29:16;0.70;1.00
12684;DHT22;6406;59.312;18.058;2024-03-25T06:31:42;0.60;1.00
12684;DHT22;6406;59.312;18.058;2024-03-25T06:34:26;0.80;1.00
12684;DHT22;6406;59.312;18.058;2024-03-25T06:36:53;0.60;1.00
12684;DHT22;6406;59.312;18.058;2024-03-25T06:39:19;0.60;1.00
12684;DHT22;6406;59.312;18.058;2024-03-25T06:41:45;0.60;1.00
12684;DHT22;6406;59.312;18.058;2024-03-25T06:44:12;0.70;1.00
12684;DHT22;6406;59.312;18.058;2024-03-25T06:46:38;0.80;1.00
12684;DHT22;6406;59.312;18.058;2024-03-25T06:49:05;0.60;1.00
12684;DHT22;6406;59.312;18.058;2024-03-25T06:51:31;0.70;1.00
12684;DHT22;6406;59.312;18.058;2024-03-25T06:53:57;0.80;1.00
12684;DHT22;6406;59.312;18.058;2024-03-25T06:56:25;0.90;1.00
12684;DHT22;6406;59.312;18.058;2024-03-25T06:58:51;0.70;1.00
12684;DHT22;6406;59.312;18.058;2024-03-25T07:01:19;0.80;1.00
12684;DHT22;6406;59.312;18.058;2024-03-25T07:03:45;0.60;1.00
12684;DHT22;6406;59.312;18.058;2024-03-25T07:06:11;0.80;1.00
12684;DHT22;6406;59.312;18.058;2024-03-25T07:08:37;0.70;1.00
12684;DHT22;6406;59.312;18.058;2024-03-25T07:11:03;0.80;1.00
12684;DHT22;6406;59.312;18.058;2024-03-25T07:13:30;1.00;1.00
12684;DHT22;6406;59.312;18.058;2024-03-25T07:15:56;1.00;1.00
12684;DHT22;6406;59.312;18.058;2024-03-25T07:18:23;1.00;1.00
12684;DHT22;6406;59.312;18.058;2024-03-25T07:20:50;1.00;1.00
12684;DHT22;6406;59.312;18.058;2024-03-25T07:23:16;0.80;1.00
12684;DHT22;6406;59.312;18.058;2024-03-25T07:25:42;1.00;1.00
12684;DHT22;6406;59.312;18.058;2024-03-25T07:28:08;1.20;1.00
12684;DHT22;6406;59.312;18.058;2024-03-25T07:30:34;1.40;1.00
12684;DHT22;6406;59.312;18.058;2024-03-25T07:33:01;1.20;1.00
12684;DHT22;6406;59.312;18.058;2024-03-25T07:35:28;1.50;1.00
12684;DHT22;6406;59.312;18.058;2024-03-25T07:37:55;1.30;1.00
12684;DHT22;6406;59.312;18.058;2024-03-25T07:40:21;1.40;1.00
12684;DHT22;6406;59.312;18.058;2024-03-25T07:42:48;1.30;1.00
12684;DHT22;6406;59.312;18.058;2024-03-25T07:45:14;1.30;1.00
12684;DHT22;6406;59.312;18.058;2024-03-25T07:47:41;1.40;1.00
12684;DHT22;6406;59.312;18.058;2024-03-25T07:50:08;1.30;1.00
12684;DHT22;6406;59.312;18.058;2024-03-25T07:52:35;1.30;1.00
12684;DHT22;6406;59.312;18.058;2024-03-25T07:55:02;1.40;1.00
12684;DHT22;6406;59.312;18.058;2024-03-25T07:57:28;2.30;1.00
12684;DHT22;6406;59.312;18.058;2024-03-25T07:59:55;1.30;1.00
12684;DHT22;6406;59.312;18.058;2024-03-25T08:02:21;1.30;1.00
12684;DHT22;6406;59.312;18.058;2024-03-25T08:04:47;1.20;1.00
12684;DHT22;6406;59.312;18.058;2024-03-25T08:07:13;1.50;1.00
12684;DHT22;6406;59.312;18.058;2024-03-25T08:09:41;1.50;1.00
12684;DHT22;6406;59.312;18.058;2024-03-25T08:12:07;1.50;1.00
12684;DHT22;6406;59.312;18.058;2024-03-25T08:14:34;1.60;1.00
12684;DHT22;6406;59.312;18.058;2024-03-25T08:17:00;1.70;1.00
12684;DHT22;6406;59.312;18.058;2024-03-25T08:19:26;1.90;1.00
12684;DHT22;6406;59.312;18.058;2024-03-25T08:21:52;1.80;1.00
12684;DHT22;6406;59.312;18.058;2024-03-25T08:24:18;1.90;1.00
12684;DHT22;6406;59.312;18.058;2024-03-25T08:26:46;2.00;1.00
12684;DHT22;6406;59.312;18.058;2024-03-25T08:29:12;2.00;1.00
12684;DHT22;6406;59.312;18.058;2024-03-25T08:31:38;2.10;1.00
12684;DHT22;6406;59.312;18.058;2024-03-25T08:34:04;2.10;1.00
12684;DHT22;6406;59.312;18.058;2024-03-25T08:36:31;2.30;1.00
12684;DHT22;6406;59.312;18.058;2024-03-25T08:38:57;1.90;1.00
12684;DHT22;6406;59.312;18.058;2024-03-25T08:41:23;2.10;1.00
12684;DHT22;6406;59.312;18.058;2024-03-25T08:43:51;2.20;1.00
12684;DHT22;6406;59.312;18.058;2024-03-25T08:46:17;2.20;1.00
12684;DHT22;6406;59.312;18.058;2024-03-25T08:48:44;2.10;1.00
12684;DHT22;6406;59.312;18.058;2024-03-25T08:51:10;2.10;1.00
12684;DHT22;6406;59.312;18.058;2024-03-25T08:53:38;2.30;1.00
12684;DHT22;6406;59.312;18.058;2024-03-25T08:56:04;2.10;1.00
12684;DHT22;6406;59.312;18.058;2024-03-25T08:58:31;2.20;1.00
12684;DHT22;6406;59.312;18.058;2024-03-25T09:00:58;1.30;1.00
12684;DHT22;6406;59.312;18.058;2024-03-25T09:03:25;2.10;1.00
12684;DHT22;6406;59.312;18.058;2024-03-25T09:05:51;2.10;1.00
12684;DHT22;6406;59.312;18.058;2024-03-25T09:08:17;2.90;1.00
12684;DHT22;6406;59.312;18.058;2024-03-25T09:10:44;2.30;1.00
12684;DHT22;6406;59.312;18.058;2024-03-25T09:13:29;1.80;1.00
12684;DHT22;6406;59.312;18.058;2024-03-25T09:15:55;2.50;1.00
12684;DHT22;6406;59.312;18.058;2024-03-25T09:18:23;2.80;1.00
12684;DHT22;6406;59.312;18.058;2024-03-25T09:20:49;3.00;1.00
12684;DHT22;6406;59.312;18.058;2024-03-25T09:23:15;2.80;99.90
12684;DHT22;6406;59.312;18.058;2024-03-25T09:25:51;3.00;1.00
12684;DHT22;6406;59.312;18.058;2024-03-25T09:28:18;2.50;1.00
12684;DHT22;6406;59.312;18.058;2024-03-25T09:30:44;2.70;1.00
12684;DHT22;6406;59.312;18.058;2024-03-25T09:33:10;2.90;99.90
12684;DHT22;6406;59.312;18.058;2024-03-25T09:35:38;3.50;1.00
12684;DHT22;6406;59.312;18.058;2024-03-25T09:38:08;2.90;1.00
12684;DHT22;6406;59.312;18.058;2024-03-25T09:40:35;2.60;1.00
12684;DHT22;6406;59.312;18.058;2024-03-25T09:43:03;2.90;1.00
12684;DHT22;6406;59.312;18.058;2024-03-25T09:45:30;2.10;99.90
12684;DHT22;6406;59.312;18.058;2024-03-25T09:47:58;3.10;1.00
12684;DHT22;6406;59.312;18.058;2024-03-25T09:50:24;3.00;1.00
12684;DHT22;6406;59.312;18.058;2024-03-25T09:52:52;3.00;1.00
12684;DHT22;6406;59.312;18.058;2024-03-25T09:55:18;2.90;1.00
12684;DHT22;6406;59.312;18.058;2024-03-25T09:57:45;2.90;1.00
12684;DHT22;6406;59.312;18.058;2024-03-25T10:00:12;3.30;99.90
12684;DHT22;6406;59.312;18.058;2024-03-25T10:02:39;2.90;1.00
12684;DHT22;6406;59.312;18.058;2024-03-25T10:05:07;3.20;1.00
12684;DHT22;6406;59.312;18.058;2024-03-25T10:07:34;3.20;1.00
12684;DHT22;6406;59.312;18.058;2024-03-25T10:10:05;2.80;1.00
12684;DHT22;6406;59.312;18.058;2024-03-25T10:12:32;3.50;1.00
12684;DHT22;6406;59.312;18.058;2024-03-25T10:14:58;6.20;99.90
12684;DHT22;6406;59.312;18.058;2024-03-25T10:17:25;3.10;99.90
12684;DHT22;6406;59.312;18.058;2024-03-25T10:19:56;2.90;99.90
12684;DHT22;6406;59.312;18.058;2024-03-25T10:22:25;3.00;99.90
12684;DHT22;6406;59.312;18.058;2024-03-25T10:24:57;2.70;1.00
12684;DHT22;6406;59.312;18.058;2024-03-25T10:27:26;3.10;1.00
12684;DHT22;6406;59.312;18.058;2024-03-25T10:29:54;3.00;99.90
12684;DHT22;6406;59.312;18.058;2024-03-25T10:32:30;3.20;99.90
12684;DHT22;6406;59.312;18.058;2024-03-25T10:34:58;3.30;99.90
12684;DHT22;6406;59.312;18.058;2024-03-25T10:37:31;1.20;99.90
12684;DHT22;6406;59.312;18.058;2024-03-25T10:40:07;3.40;99.90
12684;DHT22;6406;59.312;18.058;2024-03-25T10:43:02;3.40;99.90
12684;DHT22;6406;59.312;18.058;2024-03-25T10:45:47;3.80;99.90
12684;DHT22;6406;59.312;18.058;2024-03-25T10:48:29;4.10;99.90
12684;DHT22;6406;59.312;18.058;2024-03-25T10:51:01;3.80;99.90
12684;DHT22;6406;59.312;18.058;2024-03-25T10:53:39;3.50;99.90
12684;DHT22;6406;59.312;18.058;2024-03-25T10:56:37;3.70;99.90
12684;DHT22;6406;59.312;18.058;2024-03-25T10:59:36;3.90;99.90
12684;DHT22;6406;59.312;18.058;2024-03-25T11:02:16;3.60;99.90
12684;DHT22;6406;59.312;18.058;2024-03-25T11:04:45;3.50;99.90
12684;DHT22;6406;59.312;18.058;2024-03-25T11:07:29;3.50;99.90
12684;DHT22;6406;59.312;18.058;2024-03-25T11:10:08;3.40;99.90
12684;DHT22;6406;59.312;18.058;2024-03-25T11:12:50;3.90;99.90
12684;DHT22;6406;59.312;18.058;2024-03-25T11:15:18;3.90;99.90
12684;DHT22;6406;59.312;18.058;2024-03-25T11:20:23;4.20;99.90
12684;DHT22;6406;59.312;18.058;2024-03-25T11:22:58;4.10;99.90
12684;DHT22;6406;59.312;18.058;2024-03-25T11:25:43;6.70;99.90
12684;DHT22;6406;59.312;18.058;2024-03-25T11:28:13;4.00;99.90
12684;DHT22;6406;59.312;18.058;2024-03-25T11:30:50;3.80;99.90
12684;DHT22;6406;59.312;18.058;2024-03-25T11:33:23;4.30;99.90
12684;DHT22;6406;59.312;18.058;2024-03-25T11:35:57;4.80;99.90
12684;DHT22;6406;59.312;18.058;2024-03-25T11:38:45;6.30;99.90
12684;DHT22;6406;59.312;18.058;2024-03-25T11:41:17;2.00;99.90
12684;DHT22;6406;59.312;18.058;2024-03-25T11:43:57;5.10;99.90
12684;DHT22;6406;59.312;18.058;2024-03-25T11:46:28;4.00;99.90
12684;DHT22;6406;59.312;18.058;2024-03-25T11:49:04;3.80;99.90
12684;DHT22;6406;59.312;18.058;2024-03-25T11:51:35;5.20;99.90
12684;DHT22;6406;59.312;18.058;2024-03-25T11:54:10;4.50;99.90
12684;DHT22;6406;59.312;18.058;2024-03-25T11:56:44;4.50;99.90
12684;DHT22;6406;59.312;18.058;2024-03-25T11:59:16;6.10;99.90
12684;DHT22;6406;59.312;18.058;2024-03-25T12:01:44;3.40;99.90
12684;DHT22;6406;59.312;18.058;2024-03-25T12:04:11;4.70;99.90
12684;DHT22;6406;59.312;18.058;2024-03-25T12:06:41;3.40;99.90
12684;DHT22;6406;59.312;18.058;2024-03-25T12:09:08;4.70;99.90
12684;DHT22;6406;59.312;18.058;2024-03-25T12:11:52;4.70;99.90
12684;DHT22;6406;59.312;18.058;2024-03-25T12:14:23;5.00;99.90
12684;DHT22;6406;59.312;18.058;2024-03-25T12:16:55;4.20;99.90
12684;DHT22;6406;59.312;18.058;2024-03-25T12:19:25;5.40;99.90
12684;DHT22;6406;59.312;18.058;2024-03-25T12:22:11;1.80;99.90
12684;DHT22;6406;59.312;18.058;2024-03-25T12:24:49;5.20;99.90
12684;DHT22;6406;59.312;18.058;2024-03-25T12:27:18;4.80;99.90
12684;DHT22;6406;59.312;18.058;2024-03-25T12:29:45;4.60;99.90
12684;DHT22;6406;59.312;18.058;2024-03-25T12:32:35;4.90;99.90
12684;DHT22;6406;59.312;18.058;2024-03-25T12:40:35;4.70;99.90
12684;DHT22;6406;59.312;18.058;2024-03-25T12:43:04;5.40;99.90
12684;DHT22;6406;59.312;18.058;2024-03-25T12:45:33;5.30;99.90
12684;DHT22;6406;59.312;18.058;2024-03-25T12:48:01;4.20;99.90
12684;DHT22;6406;59.312;18.058;2024-03-25T12:50:27;4.90;99.90
12684;DHT22;6406;59.312;18.058;2024-03-25T12:52:53;8.30;99.90
12684;DHT22;6406;59.312;18.058;2024-03-25T12:55:20;4.30;99.90
12684;DHT22;6406;59.312;18.058;2024-03-25T12:57:46;4.60;99.90
12684;DHT22;6406;59.312;18.058;2024-03-25T13:00:14;4.90;99.90
12684;DHT22;6406;59.312;18.058;2024-03-25T13:02:41;4.80;99.90
12684;DHT22;6406;59.312;18.058;2024-03-25T13:05:09;4.70;99.90
12684;DHT22;6406;59.312;18.058;2024-03-25T13:07:36;4.50;99.90
12684;DHT22;6406;59.312;18.058;2024-03-25T13:10:51;2.80;99.90
12684;DHT22;6406;59.312;18.058;2024-03-25T13:16:37;4.30;99.90
12684;DHT22;6406;59.312;18.058;2024-03-25T13:19:04;4.60;99.90
12684;DHT22;6406;59.312;18.058;2024-03-25T13:21:42;4.50;99.90
12684;DHT22;6406;59.312;18.058;2024-03-25T13:24:19;7.20;99.90
12684;DHT22;6406;59.312;18.058;2024-03-25T13:26:49;4.40;99.90
12684;DHT22;6406;59.312;18.058;2024-03-25T13:29:15;4.30;99.90
12684;DHT22;6406;59.312;18.058;2024-03-25T13:31:42;4.30;99.90
12684;DHT22;6406;59.312;18.058;2024-03-25T13:34:11;4.00;99.90
12684;DHT22;6406;59.312;18.058;2024-03-25T13:39:20;5.40;99.90
12684;DHT22;6406;59.312;18.058;2024-03-25T13:41:55;4.40;99.90
12684;DHT22;6406;59.312;18.058;2024-03-25T13:44:23;4.50;99.90
12684;DHT22;6406;59.312;18.058;2024-03-25T13:46:50;4.30;99.90
12684;DHT22;6406;59.312;18.058;2024-03-25T13:49:17;4.30;99.90
12684;DHT22;6406;59.312;18.058;2024-03-25T13:51:59;6.10;99.90
12684;DHT22;6406;59.312;18.058;2024-03-25T13:54:26;3.70;99.90
12684;DHT22;6406;59.312;18.058;2024-03-25T13:56:54;4.00;99.90
12684;DHT22;6406;59.312;18.058;2024-03-25T13:59:20;4.10;99.90
12684;DHT22;6406;59.312;18.058;2024-03-25T14:01:48;4.10;99.90
12684;DHT22;6406;59.312;18.058;2024-03-25T14:04:15;4.20;99.90
12684;DHT22;6406;59.312;18.058;2024-03-25T14:06:47;5.00;99.90
12684;DHT22;6406;59.312;18.058;2024-03-25T14:09:25;4.10;99.90
12684;DHT22;6406;59.312;18.058;2024-03-25T14:11:53;3.90;99.90
12684;DHT22;6406;59.312;18.058;2024-03-25T14:14:20;3.90;99.90
12684;DHT22;6406;59.312;18.058;2024-03-25T14:16:47;4.30;99.90
12684;DHT22;6406;59.312;18.058;2024-03-25T14:19:14;3.70;99.90
12684;DHT22;6406;59.312;18.058;2024-03-25T14:21:42;4.20;99.90
12684;DHT22;6406;59.312;18.058;2024-03-25T14:24:23;0.90;99.90
12684;DHT22;6406;59.312;18.058;2024-03-25T14:27:17;3.10;1.00
12684;DHT22;6406;59.312;18.058;2024-03-25T14:30:02;3.20;1.00
12684;DHT22;6406;59.312;18.058;2024-03-25T14:32:40;4.60;99.90
12684;DHT22;6406;59.312;18.058;2024-03-25T14:35:07;2.90;99.90
12684;DHT22;6406;59.312;18.058;2024-03-25T14:37:34;2.80;1.00
12684;DHT22;6406;59.312;18.058;2024-03-25T14:40:02;2.70;1.00
12684;DHT22;6406;59.312;18.058;2024-03-25T14:42:30;2.80;1.00
12684;DHT22;6406;59.312;18.058;2024-03-25T14:45:00;2.70;1.00
12684;DHT22;6406;59.312;18.058;2024-03-25T14:47:27;2.90;1.00
12684;DHT22;6406;59.312;18.058;2024-03-25T14:49:56;2.10;1.00
12684;DHT22;6406;59.312;18.058;2024-03-25T14:55:13;2.90;1.00
12684;DHT22;6406;59.312;18.058;2024-03-25T14:57:50;2.40;1.00
12684;DHT22;6406;59.312;18.058;2024-03-25T15:03:18;1.60;1.00
12684;DHT22;6406;59.312;18.058;2024-03-25T15:05:47;2.80;1.00
12684;DHT22;6406;59.312;18.058;2024-03-25T15:08:32;2.90;1.00
12684;DHT22;6406;59.312;18.058;2024-03-25T15:11:20;3.10;1.00
12684;DHT22;6406;59.312;18.058;2024-03-25T15:16:47;2.50;1.00
12684;DHT22;6406;59.312;18.058;2024-03-25T15:19:33;2.60;1.00
12684;DHT22;6406;59.312;18.058;2024-03-25T15:22:16;2.70;1.00
12684;DHT22;6406;59.312;18.058;2024-03-25T15:24:44;2.00;1.00
12684;DHT22;6406;59.312;18.058;2024-03-25T15:27:17;2.90;1.00
12684;DHT22;6406;59.312;18.058;2024-03-25T15:35:38;2.60;1.00
12684;DHT22;6406;59.312;18.058;2024-03-25T15:38:15;2.60;1.00
12684;DHT22;6406;59.312;18.058;2024-03-25T15:43:31;3.00;1.00
12684;DHT22;6406;59.312;18.058;2024-03-25T15:46:03;2.90;1.00
12684;DHT22;6406;59.312;18.058;2024-03-25T15:51:33;2.50;1.00
12684;DHT22;6406;59.312;18.058;2024-03-25T15:54:01;3.10;1.00
12684;DHT22;6406;59.312;18.058;2024-03-25T15:56:36;2.30;1.00
12684;DHT22;6406;59.312;18.058;2024-03-25T15:59:07;2.30;1.00
12684;DHT22;6406;59.312;18.058;2024-03-25T16:01:38;2.30;1.00
12684;DHT22;6406;59.312;18.058;2024-03-25T16:04:09;2.60;1.00
12684;DHT22;6406;59.312;18.058;2024-03-25T16:06:36;2.70;1.00
12684;DHT22;6406;59.312;18.058;2024-03-25T16:09:03;2.90;1.00
12684;DHT22;6406;59.312;18.058;2024-03-25T16:11:32;2.90;1.00
12684;DHT22;6406;59.312;18.058;2024-03-25T16:13:59;2.50;1.00
12684;DHT22;6406;59.312;18.058;2024-03-25T16:16:25;2.30;1.00
12684;DHT22;6406;59.312;18.058;2024-03-25T16:18:52;3.30;1.00
12684;DHT22;6406;59.312;18.058;2024-03-25T16:21:19;2.60;1.00
12684;DHT22;6406;59.312;18.058;2024-03-25T16:23:47;2.80;1.00
12684;DHT22;6406;59.312;18.058;2024-03-25T16:26:13;2.70;1.00
12684;DHT22;6406;59.312;18.058;2024-03-25T16:28:39;2.40;1.00
12684;DHT22;6406;59.312;18.058;2024-03-25T16:31:05;2.90;1.00
12684;DHT22;6406;59.312;18.058;2024-03-25T16:33:32;2.80;1.00
12684;DHT22;6406;59.312;18.058;2024-03-25T16:35:58;2.70;1.00
12684;DHT22;6406;59.312;18.058;2024-03-25T16:38:24;2.70;1.00
12684;DHT22;6406;59.312;18.058;2024-03-25T16:40:52;2.70;1.00